Agness, OR

8:25 AM PDT on October 22, 2014 (GMT -0700)
RAWS AGNESS2 OR US | Change Station
CLOSE
Current Station
Personal Weather Station
Location: Agness, OR
Elevation: 247 ft
Nearby Weather Stations

Elev 247 ft 42.55 °N, 124.06 °W | Updated 46 minutes ago

Rain
Rain
54 °F
Feels Like 54 °F
N
1
Wind Variable Wind from NE
Gusts 5.0 mph

Today
High -- | Low -- °F
--% Chance of Precip.
Yesterday
High -- | Low -- °F
Precip. -- in
7:37 AM 6:22 PM
Waning Crescent, 2% visible
Pressure 29.95 in
Visibility 2.5 miles
Clouds Few 100 ft
Overcast 2000 ft
Dew Point 53 °F
Humidity 97%
Rainfall 0.17 in
Snow Depth Not available.
UV 0 out of 12
Pollen 2.70 out of 12
Air Quality Not available.
Flu Activity Sporadic
SPECI KBOK 221445Z AUTO 15008KT 110V180 2 1/2SM -RA BR FEW001 OVC020 14/13 A2995 RMK AO2 RAB17 P0000

More Conditions Fewer Conditions

Pressure 29.95 in
Visibility 2.5 miles
Clouds Few 100 ft
Overcast 2000 ft
Dew Point 53 °F
Humidity 97%
Rainfall 0.17 in
Snow Depth Not available.
UV 0 out of 12
Pollen 2.70 out of 12
Air Quality Not available.
Flu Activity Sporadic
SPECI KBOK 221445Z AUTO 15008KT 110V180 2 1/2SM -RA BR FEW001 OVC020 14/13 A2995 RMK AO2 RAB17 P0000

More Conditions Fewer Conditions

10-Day Weather Forecast

Almanac

Astronomy

Oct. 22, 2014 Rise Set
Actual Time 7:37 AM PDT 6:22 PM PDT
Civil Twilight 7:09 AM PDT 6:51 PM PDT
Nautical Twilight 6:36 AM PDT 7:24 PM PDT
Astronomical Twilight 6:03 AM PDT 7:57 PM PDT
Moon 6:23 AM PDT 5:53 PM PDT
Length of Visible Light 11h 42m
Length of Day
10h 45m
Tomorrow will be 2m 43s shorter.
Waning Crescent, 2% of the Moon is Illuminated
Today
Waning Crescent
Oct 23
New
Oct 30
First Quarter
Nov 6
Full
Nov 14
Last Quarter

Today's Extremes

State Highs State Lows

Community

WunderPhotos

Upload Photos

1,763,949 photos uploaded!

Nearby

Snow Depth

Station Depth Elevation
Bigelow Camp 0 in 5120 ft
Big Red Mountain 0 in 6250 ft
Fish Lake 0 in 4665 ft
Billie Creek Divide 0 in 5300 ft
Cold Springs Camp 0 in 6100 ft

Earthquake Activity

City Distance Mag. Time & Date
Crescent City, California 79 miles 2.6 1:22 AM PDT
2014-10-21
Minimum magnitude displayed is 2.5.

Coastal Water Temperatures

Place Temperature
Port Orford, OR 59.0 °F
Crescent City, CA 60.1 °F
Charleston, OR 57.9 °F

Nearby Weather Stations